Time;durP1;ratioP1;P1;durP2;ratioP2;P2;SDS_P1;SDS_P2;PMS_P1;PMS_P2;Temp;Humidity;BMP_temperature;BMP_pressure;BME280_temperature;BME280_humidity;BME280_pressure;Samples;Min_cycle;Max_cycle;Signal;HPM_P1;HPM_P2
2023/10/12 00:02:13;;;;;;;4.18;0.60;;;16.00;82.80;;;;;;5038108;28;20554;-74
2023/10/12 00:04:43;;;;;;;5.68;0.70;;;16.00;83.00;;;;;;5045507;28;20767;-75
2023/10/12 00:07:15;;;;;;;3.43;0.70;;;16.00;83.00;;;;;;5018580;28;20054;-75
2023/10/12 00:09:47;;;;;;;6.07;0.77;;;15.90;83.00;;;;;;5060777;28;20140;-75
2023/10/12 00:12:15;;;;;;;5.93;0.70;;;15.80;82.70;;;;;;5039022;28;20582;-75
2023/10/12 00:14:41;;;;;;;3.85;0.50;;;15.80;83.00;;;;;;5042851;28;20049;-75
2023/10/12 00:17:08;;;;;;;5.82;0.90;;;15.80;82.90;;;;;;5043056;28;20057;-74
2023/10/12 00:19:38;;;;;;;6.40;0.80;;;15.80;83.10;;;;;;5049582;28;20060;-75
2023/10/12 00:22:11;;;;;;;4.32;0.70;;;15.80;83.10;;;;;;5045541;28;20112;-75
2023/10/12 00:24:39;;;;;;;5.22;0.70;;;15.60;82.90;;;;;;5047636;28;20045;-74
2023/10/12 00:27:08;;;;;;;4.03;0.60;;;15.70;83.20;;;;;;5020845;28;20129;-74
2023/10/12 00:29:39;;;;;;;5.70;0.80;;;15.60;82.90;;;;;;5010219;28;20112;-74
2023/10/12 00:32:06;;;;;;;6.23;0.80;;;15.60;83.10;;;;;;5016552;28;20540;-74
2023/10/12 00:34:36;;;;;;;5.88;0.90;;;15.60;83.20;;;;;;5028946;28;20049;-75
2023/10/12 00:37:05;;;;;;;5.20;0.80;;;15.60;83.20;;;;;;5044604;28;20053;-75
2023/10/12 00:39:44;;;;;;;5.38;1.10;;;15.60;83.10;;;;;;5046943;28;20059;-74
2023/10/12 00:42:17;;;;;;;3.97;0.60;;;15.60;83.10;;;;;;5038912;28;20588;-74
2023/10/12 00:44:47;;;;;;;5.93;0.87;;;15.60;83.20;;;;;;5029616;28;20054;-74
2023/10/12 00:47:28;;;;;;;4.38;0.90;;;15.60;83.10;;;;;;5037919;28;20053;-74
2023/10/12 00:49:56;;;;;;;6.75;0.93;;;15.60;83.20;;;;;;5043843;28;20061;-74
2023/10/12 00:52:26;;;;;;;5.32;0.80;;;15.60;83.20;;;;;;5045112;28;20052;-74
2023/10/12 00:54:57;;;;;;;6.38;0.80;;;15.60;83.00;;;;;;5017688;28;20046;-74
2023/10/12 00:57:25;;;;;;;5.93;1.10;;;15.60;82.80;;;;;;5039668;28;20053;-74
2023/10/12 00:59:52;;;;;;;6.68;0.88;;;15.50;82.70;;;;;;5039956;28;20046;-74
2023/10/12 01:02:23;;;;;;;6.47;0.70;;;15.50;82.50;;;;;;5025606;28;20501;-74
2023/10/12 01:04:53;;;;;;;5.85;0.77;;;15.40;82.70;;;;;;5039597;28;20085;-74
2023/10/12 01:07:25;;;;;;;5.88;0.90;;;15.40;82.80;;;;;;5047000;28;20046;-75
2023/10/12 01:10:02;;;;;;;4.33;0.60;;;15.40;82.90;;;;;;5048109;28;20065;-74
2023/10/12 01:12:32;;;;;;;4.25;0.75;;;15.30;83.00;;;;;;5047440;28;20060;-74
2023/10/12 01:15:05;;;;;;;4.43;1.00;;;15.30;83.00;;;;;;5026122;28;20050;-74
2023/10/12 01:17:34;;;;;;;6.90;0.90;;;15.20;82.80;;;;;;5045311;28;20053;-74
2023/10/12 01:20:10;;;;;;;5.35;1.05;;;15.20;82.90;;;;;;5030928;28;20049;-74
2023/10/12 01:22:39;;;;;;;6.73;0.97;;;15.10;82.80;;;;;;5019364;28;20038;-74
2023/10/12 01:25:19;;;;;;;5.75;0.68;;;15.00;82.80;;;;;;5039622;28;20808;-74
2023/10/12 01:27:46;;;;;;;6.95;1.00;;;15.00;82.80;;;;;;5025797;28;20603;-74
2023/10/12 01:30:15;;;;;;;5.47;0.80;;;14.90;82.90;;;;;;5011021;28;20132;-74
2023/10/12 01:32:42;;;;;;;6.63;1.05;;;14.80;83.00;;;;;;5022135;28;20048;-74
2023/10/12 01:35:11;;;;;;;6.70;1.13;;;14.70;83.10;;;;;;5044179;28;20151;-74
2023/10/12 01:37:47;;;;;;;5.80;0.90;;;14.70;83.20;;;;;;5029996;28;20104;-74
2023/10/12 01:40:21;;;;;;;5.03;0.93;;;14.60;83.30;;;;;;5027066;28;20440;-74
2023/10/12 01:42:51;;;;;;;5.05;1.00;;;14.50;83.70;;;;;;5030720;28;20554;-74
2023/10/12 01:45:31;;;;;;;5.63;1.13;;;14.50;83.80;;;;;;5047162;28;20080;-74
2023/10/12 01:48:06;;;;;;;9.60;1.20;;;14.40;84.10;;;;;;5023720;28;20057;-74
2023/10/12 01:50:34;;;;;;;7.25;1.25;;;14.40;84.20;;;;;;5046804;28;20049;-74
2023/10/12 01:53:07;;;;;;;6.82;1.50;;;14.40;84.20;;;;;;5029854;28;20052;-74
2023/10/12 01:55:35;;;;;;;5.93;1.17;;;14.40;84.40;;;;;;5040960;28;20512;-74
2023/10/12 01:58:04;;;;;;;6.57;1.13;;;14.30;84.40;;;;;;5043051;28;20061;-74
2023/10/12 02:00:39;;;;;;;4.13;0.80;;;14.30;84.50;;;;;;5046530;28;20057;-74
2023/10/12 02:03:12;;;;;;;6.30;1.38;;;14.20;84.70;;;;;;5023394;28;20685;-74
2023/10/12 02:05:46;;;;;;;7.00;1.13;;;14.10;84.80;;;;;;5047107;28;20057;-74
2023/10/12 02:08:17;;;;;;;7.05;1.25;;;14.10;85.00;;;;;;5016546;28;20428;-74
2023/10/12 02:10:55;;;;;;;6.10;0.80;;;14.10;85.10;;;;;;5010328;28;20065;-74
2023/10/12 02:13:22;;;;;;;5.70;1.00;;;14.00;85.20;;;;;;5024917;28;20129;-74
2023/10/12 02:15:50;;;;;;;6.68;1.38;;;14.00;85.30;;;;;;5044606;28;20060;-74
2023/10/12 02:18:18;;;;;;;6.35;1.30;;;13.90;85.40;;;;;;5036948;28;20096;-74
2023/10/12 02:21:09;;;;;;;5.68;1.10;;;13.90;85.50;;;;;;5030274;28;20056;-74
2023/10/12 02:23:39;;;;;;;5.28;1.20;;;13.90;85.80;;;;;;5030792;28;20039;-74
2023/10/12 02:26:28;;;;;;;7.00;0.83;;;13.90;85.90;;;;;;5046459;28;20519;-74
2023/10/12 02:29:02;;;;;;;6.72;1.30;;;13.90;85.90;;;;;;5029617;28;20078;-74
2023/10/12 02:31:29;;;;;;;7.00;1.10;;;13.90;85.90;;;;;;5046678;28;20136;-74
2023/10/12 02:34:00;;;;;;;6.60;1.35;;;13.90;86.00;;;;;;5045842;28;20599;-74
2023/10/12 02:36:28;;;;;;;7.53;1.13;;;13.90;86.20;;;;;;5044117;28;20049;-74
2023/10/12 02:38:58;;;;;;;6.20;1.23;;;13.90;86.20;;;;;;5041067;28;20536;-74
2023/10/12 02:41:26;;;;;;;8.40;1.05;;;13.80;86.30;;;;;;5046360;28;20192;-74
2023/10/12 02:43:54;;;;;;;7.32;1.10;;;13.80;86.40;;;;;;5024458;28;20052;-74
2023/10/12 02:46:23;;;;;;;6.90;1.10;;;13.90;86.40;;;;;;5029427;28;20913;-73
2023/10/12 02:48:51;;;;;;;8.05;1.30;;;13.80;86.50;;;;;;5013275;28;20050;-74
2023/10/12 02:51:22;;;;;;;4.17;1.10;;;13.80;86.50;;;;;;5026788;28;20476;-74
2023/10/12 02:53:49;;;;;;;6.18;1.30;;;13.80;86.70;;;;;;5042665;28;20049;-74
2023/10/12 02:56:22;;;;;;;5.57;1.02;;;13.70;86.80;;;;;;5043810;28;20054;-73
2023/10/12 02:58:49;;;;;;;6.30;1.23;;;13.70;86.70;;;;;;5023471;28;20129;-74
2023/10/12 03:01:21;;;;;;;7.95;1.90;;;13.70;86.80;;;;;;5045775;28;20054;-74
2023/10/12 03:03:54;;;;;;;5.53;1.17;;;13.70;86.80;;;;;;5043782;28;20417;-74
2023/10/12 03:06:23;;;;;;;4.82;1.00;;;13.70;86.80;;;;;;5029327;28;20046;-74
2023/10/12 03:09:14;;;;;;;6.50;1.08;;;13.70;86.90;;;;;;5039162;28;20057;-74
2023/10/12 03:11:43;;;;;;;7.00;1.27;;;13.70;87.00;;;;;;5029693;28;20049;-74
2023/10/12 03:14:15;;;;;;;9.00;1.20;;;13.70;87.00;;;;;;5036516;28;20070;-73
2023/10/12 03:16:43;;;;;;;5.43;0.87;;;13.80;87.10;;;;;;5045804;28;20064;-74
2023/10/12 03:19:22;;;;;;;6.63;1.42;;;13.90;87.00;;;;;;5035299;28;20160;-74
2023/10/12 03:21:51;;;;;;;5.03;1.08;;;13.90;87.00;;;;;;5041535;28;20046;-74
2023/10/12 03:24:21;;;;;;;6.30;1.30;;;13.90;87.00;;;;;;5029295;28;20056;-73
2023/10/12 03:27:04;;;;;;;5.18;0.90;;;13.90;87.00;;;;;;5042291;28;20075;-74
2023/10/12 03:29:32;;;;;;;6.57;1.03;;;13.90;86.90;;;;;;5046279;28;20060;-74
2023/10/12 03:32:00;;;;;;;8.02;1.25;;;13.90;86.90;;;;;;5025683;28;20108;-74
2023/10/12 03:34:49;;;;;;;6.13;0.95;;;13.90;86.90;;;;;;5029403;28;20405;-75
2023/10/12 03:37:39;;;;;;;5.68;0.90;;;13.90;86.90;;;;;;5010360;28;20053;-74
2023/10/12 03:40:49;;;;;;;8.50;1.10;;;13.90;86.80;;;;;;5033761;28;20125;-74
2023/10/12 03:42:56;;;;;;;4.47;0.90;;;13.90;86.70;;;;;;5037781;28;20057;-74
2023/10/12 03:45:26;;;;;;;4.70;0.80;;;13.90;86.70;;;;;;5044667;28;20054;-74
2023/10/12 03:48:04;;;;;;;5.47;0.90;;;13.90;86.80;;;;;;5042884;28;20598;-74
2023/10/12 03:50:36;;;;;;;5.60;1.20;;;13.90;86.80;;;;;;5045634;28;20050;-74
2023/10/12 03:53:06;;;;;;;7.20;1.40;;;13.90;86.70;;;;;;5049161;28;20593;-74
2023/10/12 03:55:35;;;;;;;6.73;1.30;;;13.80;86.70;;;;;;5045645;28;20705;-74
2023/10/12 03:58:06;;;;;;;8.85;1.10;;;13.80;86.80;;;;;;5027557;28;20053;-74
2023/10/12 04:00:40;;;;;;;5.07;0.80;;;13.80;86.70;;;;;;5049401;28;20132;-75
2023/10/12 04:03:14;;;;;;;4.53;0.80;;;13.80;86.70;;;;;;5050035;28;20057;-75
2023/10/12 04:05:55;;;;;;;7.20;1.40;;;13.80;86.70;;;;;;5048747;28;20108;-75
2023/10/12 04:08:43;;;;;;;7.10;1.07;;;13.80;86.70;;;;;;5048886;28;20057;-74
2023/10/12 04:14:10;;;;;;;7.05;1.13;;;13.70;86.80;;;;;;5048617;28;20152;-74
2023/10/12 04:16:45;;;;;;;7.40;1.27;;;13.70;86.80;;;;;;5031861;28;20665;-74
2023/10/12 04:19:15;;;;;;;7.47;1.35;;;13.70;86.80;;;;;;5043790;28;20050;-74
2023/10/12 04:21:58;;;;;;;5.83;1.10;;;13.80;86.80;;;;;;5030612;28;20571;-74
2023/10/12 04:24:42;;;;;;;6.00;1.08;;;13.70;86.70;;;;;;5048397;28;20115;-74
2023/10/12 04:27:24;;;;;;;6.20;1.20;;;13.70;86.70;;;;;;5048688;28;20049;-75
2023/10/12 04:29:56;;;;;;;4.70;1.20;;;13.70;86.60;;;;;;5049229;28;20120;-74
2023/10/12 04:32:51;;;;;;;6.25;1.20;;;13.70;86.70;;;;;;5048643;28;20131;-74
2023/10/12 04:35:19;;;;;;;5.90;1.13;;;13.70;86.70;;;;;;5016117;28;20057;-74
2023/10/12 04:37:47;;;;;;;7.20;1.88;;;13.70;86.70;;;;;;5028130;28;20053;-74
2023/10/12 04:40:35;;;;;;;7.05;1.60;;;13.70;86.70;;;;;;5028948;28;20078;-74
2023/10/12 04:43:06;;;;;;;8.20;1.33;;;13.60;86.80;;;;;;5028541;28;20054;-74
2023/10/12 04:48:21;;;;;;;5.63;1.03;;;13.60;86.80;;;;;;5032846;28;20046;-74
2023/10/12 04:50:59;;;;;;;4.82;1.10;;;13.60;87.00;;;;;;5046816;28;20053;-75
2023/10/12 04:53:35;;;;;;;6.38;1.02;;;13.50;86.90;;;;;;5047573;28;20045;-74
2023/10/12 04:56:09;;;;;;;6.82;1.42;;;13.50;86.90;;;;;;5028725;28;20044;-74
2023/10/12 04:58:37;;;;;;;6.10;1.10;;;13.50;86.90;;;;;;5029828;28;20528;-74
2023/10/12 05:01:17;;;;;;;7.10;1.20;;;13.50;86.80;;;;;;5038971;28;20057;-75
2023/10/12 05:04:04;;;;;;;5.85;1.23;;;13.50;86.90;;;;;;5040968;28;20175;-75
2023/10/12 05:06:31;;;;;;;6.20;1.30;;;13.50;87.00;;;;;;5046671;28;20054;-74
2023/10/12 05:08:58;;;;;;;5.50;1.23;;;13.40;87.20;;;;;;5043647;28;20050;-74
2023/10/12 05:11:28;;;;;;;8.32;1.58;;;13.40;87.10;;;;;;5030953;28;20053;-75
2023/10/12 05:13:54;;;;;;;6.13;1.27;;;13.40;87.20;;;;;;5030193;28;20069;-75
2023/10/12 05:16:26;;;;;;;8.07;1.52;;;13.40;87.30;;;;;;5031102;28;20057;-74
2023/10/12 05:18:53;;;;;;;7.03;1.20;;;13.40;87.50;;;;;;5038190;28;20499;-74
2023/10/12 05:21:21;;;;;;;9.57;1.30;;;13.30;87.60;;;;;;5028092;28;20046;-74
2023/10/12 05:23:48;;;;;;;5.85;1.45;;;13.40;87.60;;;;;;5012334;28;20061;-75
2023/10/12 05:26:15;;;;;;;5.57;1.60;;;13.40;87.60;;;;;;5045722;28;20053;-75
2023/10/12 05:28:57;;;;;;;9.30;1.60;;;13.40;87.60;;;;;;5030475;28;20053;-75
2023/10/12 05:31:28;;;;;;;5.43;1.50;;;13.40;87.60;;;;;;5045165;28;20495;-74
2023/10/12 05:36:45;;;;;;;7.43;1.77;;;13.40;87.70;;;;;;5047500;28;20049;-74
2023/10/12 05:39:14;;;;;;;7.53;1.70;;;13.40;87.90;;;;;;5041908;28;20049;-74
2023/10/12 05:41:42;;;;;;;7.65;1.70;;;13.40;87.80;;;;;;5048554;28;20085;-74
2023/10/12 05:44:16;;;;;;;8.75;1.60;;;13.40;87.80;;;;;;5046041;28;20053;-74
2023/10/12 05:46:51;;;;;;;8.77;1.30;;;13.40;87.90;;;;;;5028538;28;20041;-75
2023/10/12 05:49:59;;;;;;;7.57;1.40;;;13.40;87.90;;;;;;5041211;28;20103;-74
2023/10/12 05:52:26;;;;;;;9.60;1.60;;;13.40;87.90;;;;;;5046880;28;20470;-75
2023/10/12 05:54:57;;;;;;;7.53;1.50;;;13.50;87.90;;;;;;5043604;28;20156;-74
2023/10/12 05:57:25;;;;;;;8.20;1.58;;;13.50;87.80;;;;;;5044429;28;20376;-75
2023/10/12 05:59:52;;;;;;;7.03;1.60;;;13.50;87.80;;;;;;5038093;28;20528;-75
2023/10/12 06:02:22;;;;;;;8.32;1.80;;;13.50;87.80;;;;;;5044419;28;20056;-75
2023/10/12 06:04:49;;;;;;;7.37;1.63;;;13.50;87.70;;;;;;5027118;28;20076;-74
2023/10/12 06:07:17;;;;;;;5.97;1.30;;;13.50;87.70;;;;;;5044063;28;20068;-75
2023/10/12 06:09:44;;;;;;;6.53;1.50;;;13.50;87.70;;;;;;5042231;28;20042;-75
2023/10/12 06:12:17;;;;;;;6.53;1.20;;;13.50;87.60;;;;;;5042855;28;20053;-75
2023/10/12 06:14:53;;;;;;;7.85;1.58;;;13.40;87.50;;;;;;5034912;28;20042;-75
2023/10/12 06:17:30;;;;;;;7.37;1.20;;;13.40;87.60;;;;;;5033776;28;20054;-74
2023/10/12 06:20:00;;;;;;;7.35;1.63;;;13.40;87.50;;;;;;5032747;28;20057;-75
2023/10/12 06:22:32;;;;;;;6.80;1.40;;;13.40;87.50;;;;;;5026829;28;20045;-75
2023/10/12 06:25:01;;;;;;;5.47;1.10;;;13.40;87.50;;;;;;5025086;28;20049;-75
2023/10/12 06:27:30;;;;;;;6.22;1.20;;;13.40;87.50;;;;;;5045223;28;20084;-75
2023/10/12 06:30:03;;;;;;;6.63;1.40;;;13.40;87.50;;;;;;5042557;28;20133;-75
2023/10/12 06:32:32;;;;;;;7.95;1.48;;;13.50;87.50;;;;;;5029394;28;20046;-74
2023/10/12 06:35:13;;;;;;;7.65;1.40;;;13.50;87.40;;;;;;5044386;28;20574;-74
2023/10/12 06:40:38;;;;;;;6.50;1.50;;;13.50;87.20;;;;;;5036540;28;20133;-74
2023/10/12 06:45:58;;;;;;;4.97;1.45;;;13.50;87.20;;;;;;5008283;28;20553;-74
2023/10/12 06:51:23;;;;;;;6.95;1.48;;;13.50;87.10;;;;;;5127217;27;20846;-75
2023/10/12 06:53:54;;;;;;;8.10;1.67;;;13.50;87.10;;;;;;5107238;27;20053;-75
2023/10/12 06:56:27;;;;;;;5.93;1.67;;;13.50;87.10;;;;;;5128458;27;20041;-75
2023/10/12 06:59:21;;;;;;;5.70;1.45;;;13.50;87.10;;;;;;5126574;27;20778;-75
2023/10/12 07:02:09;;;;;;;5.22;1.13;;;13.50;87.10;;;;;;5108840;27;20059;-75
2023/10/12 07:04:38;;;;;;;7.03;1.38;;;13.50;87.10;;;;;;5103972;27;20060;-75
2023/10/12 07:07:10;;;;;;;9.02;1.40;;;13.50;87.00;;;;;;5102314;27;20048;-75
2023/10/12 07:09:40;;;;;;;8.10;1.73;;;13.50;87.10;;;;;;5100995;27;20056;-75
2023/10/12 07:12:08;;;;;;;5.95;1.33;;;13.50;87.10;;;;;;5102347;27;20274;-75
2023/10/12 07:14:38;;;;;;;8.32;1.73;;;13.40;87.10;;;;;;5104547;27;20056;-75
2023/10/12 07:17:07;;;;;;;7.72;1.70;;;13.40;87.20;;;;;;5129306;27;20071;-75
2023/10/12 07:19:35;;;;;;;6.90;1.88;;;13.50;87.20;;;;;;5113653;27;20518;-75
2023/10/12 07:22:07;;;;;;;7.83;1.83;;;13.40;87.20;;;;;;5109123;27;20717;-76
2023/10/12 07:24:38;;;;;;;6.50;1.77;;;13.50;87.20;;;;;;5105346;27;20274;-74
2023/10/12 07:27:11;;;;;;;6.00;1.40;;;13.50;87.30;;;;;;5109590;27;20199;-75
2023/10/12 07:29:44;;;;;;;6.57;1.70;;;13.50;87.40;;;;;;5110325;27;20053;-75
2023/10/12 07:32:19;;;;;;;5.88;1.50;;;13.50;87.40;;;;;;5100381;27;20444;-76
2023/10/12 07:34:53;;;;;;;7.20;1.50;;;13.50;87.50;;;;;;5099440;28;20618;-75
2023/10/12 07:37:21;;;;;;;5.93;1.30;;;13.50;87.70;;;;;;5100920;28;20243;-75
2023/10/12 07:39:50;;;;;;;5.75;1.17;;;13.50;87.70;;;;;;5100640;28;20053;-75
2023/10/12 07:42:25;;;;;;;7.03;1.30;;;13.50;87.90;;;;;;5104223;28;20510;-75
2023/10/12 07:44:54;;;;;;;6.05;1.60;;;13.50;87.60;;;;;;5103476;27;20110;-74
2023/10/12 07:47:31;;;;;;;8.40;1.30;;;13.50;87.40;;;;;;5106989;27;20312;-75
2023/10/12 07:50:07;;;;;;;7.22;1.48;;;13.50;87.20;;;;;;5096007;28;20276;-75
2023/10/12 07:52:44;;;;;;;7.00;1.60;;;13.50;86.80;;;;;;5099556;28;20897;-75
2023/10/12 07:55:15;;;;;;;10.00;1.30;;;13.60;86.90;;;;;;5127490;27;20186;-76
2023/10/12 07:57:42;;;;;;;7.90;0.95;;;13.60;86.80;;;;;;5105297;27;20482;-74
2023/10/12 08:03:17;;;;;;;6.72;1.27;;;13.60;86.50;;;;;;5082634;28;20287;-75
2023/10/12 08:05:45;;;;;;;7.47;0.90;;;13.60;86.30;;;;;;5096491;28;20194;-75
2023/10/12 08:08:33;;;;;;;7.07;1.33;;;13.60;85.70;;;;;;5081679;28;20135;-75
2023/10/12 08:11:09;;;;;;;7.32;1.15;;;13.60;84.70;;;;;;5093206;27;20048;-75
2023/10/12 08:13:39;;;;;;;7.70;1.00;;;13.60;84.40;;;;;;5065668;28;20048;-75
2023/10/12 08:16:15;;;;;;;6.57;0.88;;;13.70;84.60;;;;;;5088592;28;20811;-75
2023/10/12 08:21:31;;;;;;;5.93;0.85;;;13.70;84.60;;;;;;5080098;28;20728;-75
2023/10/12 08:24:09;;;;;;;9.13;0.95;;;13.70;84.50;;;;;;5088550;28;20053;-75
2023/10/12 08:26:49;;;;;;;7.90;1.17;;;13.70;84.10;;;;;;5089296;28;20136;-76
2023/10/12 08:29:47;;;;;;;11.05;1.42;;;13.70;83.90;;;;;;5091960;28;20346;-75
2023/10/12 08:32:12;;;;;;;7.28;1.10;;;13.70;84.00;;;;;;5068799;28;20040;-75
2023/10/12 08:35:10;;;;;;;8.25;0.95;;;13.80;83.90;;;;;;5086269;28;20044;-75
2023/10/12 08:37:36;;;;;;;4.82;1.00;;;13.80;83.40;;;;;;5104951;27;20459;-75
2023/10/12 08:40:18;;;;;;;5.20;1.30;;;13.80;82.10;;;;;;5087218;28;20135;-76
2023/10/12 08:42:58;;;;;;;6.22;1.05;;;13.70;82.40;;;;;;5087098;28;20286;-75
2023/10/12 08:45:30;;;;;;;6.13;1.30;;;13.80;82.40;;;;;;5087840;28;20049;-75
2023/10/12 08:48:01;;;;;;;5.22;0.80;;;13.80;82.20;;;;;;5101814;27;20059;-75
2023/10/12 08:53:19;;;;;;;5.70;0.80;;;13.80;82.00;;;;;;5087885;28;20041;-74
2023/10/12 08:55:47;;;;;;;8.18;1.00;;;13.90;82.20;;;;;;5069170;28;20275;-75
2023/10/12 08:58:30;;;;;;;7.28;1.33;;;13.90;82.40;;;;;;5091371;28;20146;-75
2023/10/12 09:01:08;;;;;;;7.70;1.17;;;13.90;82.60;;;;;;5076263;28;20055;-74
2023/10/12 09:03:38;;;;;;;5.15;1.15;;;13.90;82.60;;;;;;5097753;28;20493;-75
2023/10/12 09:06:19;;;;;;;7.00;1.20;;;13.90;82.20;;;;;;5097233;28;20053;-75
2023/10/12 09:08:47;;;;;;;5.28;0.90;;;13.90;82.00;;;;;;5092997;28;20745;-76
2023/10/12 09:11:26;;;;;;;7.20;1.30;;;13.90;82.50;;;;;;5098928;28;20148;-75
2023/10/12 09:13:57;;;;;;;6.28;1.15;;;14.00;82.60;;;;;;5105439;27;20083;-75
2023/10/12 09:16:26;;;;;;;9.73;1.13;;;14.00;82.80;;;;;;5087455;28;20728;-75
2023/10/12 09:18:58;;;;;;;6.27;0.67;;;14.00;83.00;;;;;;5113326;27;20040;-75
2023/10/12 09:21:38;;;;;;;9.23;0.98;;;14.10;83.00;;;;;;5089371;28;20486;-75
2023/10/12 09:24:06;;;;;;;4.40;0.70;;;14.10;83.10;;;;;;5093113;28;20564;-75
2023/10/12 09:26:34;;;;;;;9.05;1.10;;;14.10;82.70;;;;;;5074135;28;20496;-75
2023/10/12 09:29:20;;;;;;;8.25;1.02;;;14.10;82.40;;;;;;5088708;28;20055;-75
2023/10/12 09:32:12;;;;;;;7.83;0.80;;;14.10;82.30;;;;;;5083494;28;20044;-75
2023/10/12 09:34:43;;;;;;;5.47;1.10;;;14.20;82.50;;;;;;5089081;28;20253;-75
2023/10/12 09:37:16;;;;;;;7.07;1.10;;;14.20;82.60;;;;;;5089169;28;20887;-75
2023/10/12 09:39:46;;;;;;;10.57;1.17;;;14.20;82.60;;;;;;5098821;28;20045;-75
2023/10/12 09:42:23;;;;;;;7.63;0.93;;;14.30;82.50;;;;;;5093868;28;20093;-75
2023/10/12 09:45:01;;;;;;;5.40;0.87;;;14.30;82.30;;;;;;5092517;28;20056;-75
2023/10/12 09:47:43;;;;;;;6.97;0.80;;;14.30;82.10;;;;;;5087731;28;20303;-75
2023/10/12 09:50:14;;;;;;;6.95;0.82;;;14.30;81.90;;;;;;5063357;28;20431;-75
2023/10/12 09:52:57;;;;;;;10.35;1.10;;;14.40;81.60;;;;;;5092875;28;20053;-74
2023/10/12 09:55:32;;;;;;;6.10;0.73;;;14.40;81.10;;;;;;5085958;28;20044;-75
2023/10/12 09:58:12;;;;;;;8.30;1.03;;;14.40;80.40;;;;;;5087473;28;20048;-75
2023/10/12 10:01:01;;;;;;;7.43;0.98;;;14.40;80.00;;;;;;5086269;28;20259;-75
2023/10/12 10:03:35;;;;;;;5.97;0.57;;;14.40;79.30;;;;;;5083946;28;20065;-75
2023/10/12 10:06:19;;;;;;;6.05;0.73;;;14.40;79.60;;;;;;5078844;28;20131;-75
2023/10/12 10:09:09;;;;;;;8.45;0.90;;;14.40;79.60;;;;;;5084105;28;20262;-75
2023/10/12 10:11:37;;;;;;;8.00;0.70;;;14.40;79.80;;;;;;5094183;28;20126;-75
2023/10/12 10:14:09;;;;;;;6.57;0.85;;;14.50;80.10;;;;;;5092663;28;20334;-75
2023/10/12 10:16:46;;;;;;;10.40;1.13;;;14.50;80.60;;;;;;5085834;28;20132;-75
2023/10/12 10:19:17;;;;;;;7.35;0.70;;;14.60;80.70;;;;;;5095687;28;20048;-75
2023/10/12 10:21:50;;;;;;;5.65;0.93;;;14.60;80.60;;;;;;5094858;28;20520;-75
2023/10/12 10:24:25;;;;;;;10.23;1.00;;;14.60;80.70;;;;;;5089223;28;20052;-75
2023/10/12 10:27:10;;;;;;;6.10;0.82;;;14.70;80.70;;;;;;5088085;28;20271;-75
2023/10/12 10:29:44;;;;;;;7.15;0.90;;;14.70;80.70;;;;;;5088232;28;20727;-75
2023/10/12 10:32:16;;;;;;;3.90;1.10;;;14.70;80.70;;;;;;5086762;28;20404;-75
2023/10/12 10:34:44;;;;;;;7.15;1.10;;;14.80;80.50;;;;;;5085538;28;20455;-75
2023/10/12 10:37:15;;;;;;;8.17;0.90;;;14.80;80.50;;;;;;5066211;28;20084;-75
2023/10/12 10:39:43;;;;;;;5.10;0.70;;;14.80;80.50;;;;;;5091266;28;20271;-76
2023/10/12 10:42:10;;;;;;;7.60;1.17;;;14.80;80.50;;;;;;5082445;28;20554;-77
2023/10/12 10:44:41;;;;;;;6.50;1.08;;;14.80;80.50;;;;;;5084385;28;20168;-77
2023/10/12 10:47:10;;;;;;;6.35;0.80;;;14.90;80.60;;;;;;5088519;28;20084;-76
2023/10/12 10:49:39;;;;;;;7.03;0.93;;;14.90;80.60;;;;;;5085342;28;20070;-77
2023/10/12 10:52:21;;;;;;;6.13;1.02;;;14.90;80.20;;;;;;5071147;28;20278;-76
2023/10/12 10:55:00;;;;;;;6.53;1.13;;;14.90;80.20;;;;;;5083974;28;20048;-76
2023/10/12 10:57:31;;;;;;;7.22;1.13;;;14.90;80.00;;;;;;5087134;28;20053;-76
2023/10/12 11:00:00;;;;;;;5.95;0.90;;;14.90;79.90;;;;;;5084767;28;20052;-77
2023/10/12 11:02:28;;;;;;;5.10;0.70;;;14.90;79.80;;;;;;5084363;28;20170;-76
2023/10/12 11:05:00;;;;;;;5.65;0.98;;;14.90;79.60;;;;;;5084815;28;20350;-76
2023/10/12 11:07:27;;;;;;;5.78;0.80;;;15.00;79.30;;;;;;5069356;28;20128;-78
2023/10/12 11:10:08;;;;;;;7.13;1.20;;;15.00;79.10;;;;;;5067707;28;20167;-76
2023/10/12 11:12:36;;;;;;;5.97;0.80;;;15.00;78.90;;;;;;5084297;28;20573;-77
2023/10/12 11:15:08;;;;;;;6.80;1.33;;;15.00;78.90;;;;;;5075125;28;20514;-77
2023/10/12 11:17:40;;;;;;;7.05;1.13;;;15.00;79.20;;;;;;5066350;28;20834;-77
2023/10/12 11:20:38;;;;;;;8.57;0.98;;;15.00;79.30;;;;;;5085998;28;20048;-77
2023/10/12 11:23:07;;;;;;;8.00;0.65;;;15.00;79.40;;;;;;5063933;28;20040;-77
2023/10/12 11:25:39;;;;;;;6.57;1.00;;;15.00;79.50;;;;;;5090046;28;20075;-76
2023/10/12 11:28:23;;;;;;;5.43;1.00;;;15.00;79.40;;;;;;5085050;28;20142;-76
2023/10/12 11:31:01;;;;;;;6.32;1.13;;;15.00;79.40;;;;;;5114533;27;20303;-77
2023/10/12 11:33:29;;;;;;;9.68;1.30;;;15.00;79.40;;;;;;5090231;28;20593;-76
2023/10/12 11:36:03;;;;;;;6.35;1.10;;;15.00;79.30;;;;;;5084300;28;20582;-77
2023/10/12 11:38:30;;;;;;;4.15;0.70;;;15.10;79.10;;;;;;5098106;28;20045;-76
2023/10/12 11:41:13;;;;;;;4.97;0.70;;;15.10;79.00;;;;;;5090395;28;20125;-76
2023/10/12 11:43:49;;;;;;;7.65;0.80;;;15.20;78.40;;;;;;5090409;28;20252;-77
2023/10/12 11:46:16;;;;;;;5.05;0.90;;;15.10;78.20;;;;;;5091178;28;20053;-77
2023/10/12 11:48:43;;;;;;;5.05;1.20;;;15.20;78.50;;;;;;5088509;28;20051;-77
2023/10/12 11:51:12;;;;;;;6.00;0.80;;;15.20;78.40;;;;;;5093776;28;20143;-76
2023/10/12 11:53:40;;;;;;;7.47;1.03;;;15.20;77.80;;;;;;5089262;28;20529;-76
2023/10/12 11:56:13;;;;;;;6.55;1.35;;;15.20;78.00;;;;;;5086565;28;20338;-76
2023/10/12 11:58:41;;;;;;;7.18;1.10;;;15.20;77.80;;;;;;5090808;28;20044;-76
2023/10/12 12:01:09;;;;;;;7.15;1.02;;;15.20;78.00;;;;;;5088430;28;20060;-77
2023/10/12 12:03:39;;;;;;;5.90;0.88;;;15.20;77.90;;;;;;5088775;28;20491;-77
2023/10/12 12:06:10;;;;;;;4.20;0.90;;;15.30;78.20;;;;;;5087963;28;20048;-77
2023/10/12 12:08:40;;;;;;;5.40;0.95;;;15.30;78.00;;;;;;5077661;28;20267;-76
2023/10/12 12:11:09;;;;;;;6.97;1.13;;;15.30;77.90;;;;;;5095074;28;20178;-75
2023/10/12 12:13:42;;;;;;;7.47;1.33;;;15.30;77.90;;;;;;5098904;28;20044;-76
2023/10/12 12:16:10;;;;;;;5.63;0.75;;;15.30;78.10;;;;;;5107895;28;20071;-77
2023/10/12 12:18:36;;;;;;;5.80;1.00;;;15.30;78.00;;;;;;5093202;27;20049;-77
2023/10/12 12:21:14;;;;;;;6.00;0.90;;;15.30;78.00;;;;;;5089148;28;20283;-77
2023/10/12 12:23:43;;;;;;;8.02;0.90;;;15.30;77.70;;;;;;5088508;28;20051;-77
2023/10/12 12:26:14;;;;;;;6.30;1.13;;;15.30;77.60;;;;;;5088052;28;20404;-77
2023/10/12 12:28:44;;;;;;;6.25;1.00;;;15.40;77.60;;;;;;5122017;27;20044;-77
2023/10/12 12:31:13;;;;;;;10.40;1.60;;;15.40;77.60;;;;;;5088938;28;20139;-77
2023/10/12 12:33:43;;;;;;;5.78;1.00;;;15.40;77.70;;;;;;5092942;28;20231;-77
2023/10/12 12:36:12;;;;;;;6.95;0.93;;;15.40;77.60;;;;;;5096395;28;20049;-77
2023/10/12 12:38:57;;;;;;;5.85;0.90;;;15.40;77.50;;;;;;5090691;28;20048;-77
2023/10/12 12:41:24;;;;;;;7.72;1.10;;;15.40;77.20;;;;;;5091227;28;20059;-77
2023/10/12 12:43:51;;;;;;;6.13;0.73;;;15.40;77.00;;;;;;5094089;28;20437;-77
2023/10/12 12:46:20;;;;;;;6.05;0.95;;;15.40;77.20;;;;;;5103272;28;20342;-77
2023/10/12 12:48:51;;;;;;;6.72;0.90;;;15.40;77.40;;;;;;5091257;27;20306;-77
2023/10/12 12:51:18;;;;;;;10.65;1.27;;;15.40;77.40;;;;;;5087018;28;20052;-77
2023/10/12 12:53:48;;;;;;;6.13;1.10;;;15.40;77.30;;;;;;5100553;28;20132;-77
2023/10/12 12:56:15;;;;;;;5.87;1.37;;;15.40;77.30;;;;;;5074943;28;20486;-77
2023/10/12 12:58:46;;;;;;;7.38;1.20;;;15.40;77.50;;;;;;5070898;28;20298;-77
2023/10/12 13:01:14;;;;;;;8.68;1.13;;;15.40;77.60;;;;;;5088310;28;20628;-77
2023/10/12 13:03:41;;;;;;;5.65;1.02;;;15.40;77.60;;;;;;5089286;28;20048;-77
2023/10/12 13:06:08;;;;;;;5.32;0.90;;;15.40;77.70;;;;;;5088919;28;21103;-77
2023/10/12 13:08:35;;;;;;;4.87;1.07;;;15.40;77.50;;;;;;5095087;28;20044;-76
2023/10/12 13:11:05;;;;;;;6.13;0.98;;;15.40;77.20;;;;;;5078898;28;20286;-76
2023/10/12 13:13:33;;;;;;;6.43;0.80;;;15.40;77.00;;;;;;5097237;28;20647;-76
2023/10/12 13:16:03;;;;;;;5.88;0.70;;;15.40;77.00;;;;;;5086802;28;20529;-76
2023/10/12 13:18:32;;;;;;;4.57;0.77;;;15.40;77.10;;;;;;5087243;28;20053;-75
2023/10/12 13:21:00;;;;;;;5.33;1.03;;;15.40;76.90;;;;;;5088471;28;20063;-77
2023/10/12 13:23:29;;;;;;;9.23;1.20;;;15.30;76.80;;;;;;5093491;28;20330;-77
2023/10/12 13:25:56;;;;;;;6.20;0.75;;;15.30;76.70;;;;;;5091445;28;20044;-77
2023/10/12 13:28:25;;;;;;;6.95;0.95;;;15.30;76.70;;;;;;5094524;28;20092;-77
2023/10/12 13:30:52;;;;;;;6.25;0.75;;;15.30;76.50;;;;;;5095316;28;20051;-76
2023/10/12 13:33:23;;;;;;;6.97;0.80;;;15.30;76.30;;;;;;5070750;28;20082;-76
2023/10/12 13:35:55;;;;;;;7.38;0.82;;;15.30;76.40;;;;;;5085538;28;21267;-77
2023/10/12 13:38:22;;;;;;;5.18;0.85;;;15.20;76.30;;;;;;5096417;28;20159;-76
2023/10/12 13:40:50;;;;;;;9.45;1.13;;;15.20;76.60;;;;;;5085672;28;20126;-78